createdAt,value
2022-11-15T00:01:01.049Z,99390.09
2022-11-15T00:02:59.395Z,99390.09
2022-11-15T00:04:57.699Z,99391.53
2022-11-15T00:06:55.762Z,99390.78
2022-11-15T00:08:53.814Z,99384.94
2022-11-15T00:10:52.026Z,99379.84
2022-11-15T00:12:50.268Z,99368.13
2022-11-15T00:14:48.602Z,99377.63
2022-11-15T00:16:46.921Z,99380.53
2022-11-15T00:18:50.371Z,99378.38
2022-11-15T00:20:49.002Z,99373.22
2022-11-15T00:22:47.011Z,99373.22
2022-11-15T00:24:45.423Z,99373.22
2022-11-15T00:26:43.452Z,99368.09
2022-11-15T00:28:41.452Z,99368.84
2022-11-15T00:30:39.813Z,99367.34
2022-11-15T00:32:37.833Z,99365.16
2022-11-15T00:34:36.042Z,99363.69
2022-11-15T00:36:34.046Z,99361.50
2022-11-15T00:38:32.433Z,99361.50
2022-11-15T00:40:30.625Z,99354.19
2022-11-15T00:42:28.682Z,99359.28
2022-11-15T00:44:26.884Z,99354.19
2022-11-15T00:46:24.901Z,99355.63
2022-11-15T00:48:23.090Z,99360.72
2022-11-15T00:50:21.325Z,99357.06
2022-11-15T00:52:19.565Z,99354.91
2022-11-15T00:54:17.866Z,99351.97
2022-11-15T00:56:16.098Z,99351.22
2022-11-15T00:58:14.122Z,99346.13
2022-11-15T01:00:12.146Z,99342.47
2022-11-15T01:02:10.260Z,99342.41
2022-11-15T01:04:08.290Z,99345.34
2022-11-15T01:06:06.634Z,99343.16
2022-11-15T01:08:04.686Z,99336.56
2022-11-15T01:10:02.732Z,99339.50
2022-11-15T01:12:00.717Z,99338.03
2022-11-15T01:13:59.132Z,99338.78
2022-11-15T01:15:57.441Z,99331.44
2022-11-15T01:17:56.065Z,99331.44
2022-11-15T01:19:54.192Z,99334.38
2022-11-15T01:21:52.209Z,99328.53
2022-11-15T01:23:50.251Z,99329.28
2022-11-15T01:25:48.634Z,99327.78
2022-11-15T01:27:46.954Z,99332.88
2022-11-15T01:29:45.271Z,99320.47
2022-11-15T01:31:43.485Z,99324.13
2022-11-15T01:33:41.812Z,99323.38
2022-11-15T01:35:40.035Z,99316.78
2022-11-15T01:37:38.057Z,99317.53
2022-11-15T01:39:36.260Z,99310.97
2022-11-15T01:41:34.554Z,99310.22
2022-11-15T01:43:32.796Z,99312.41
2022-11-15T01:45:31.432Z,99307.28
2022-11-15T01:47:29.486Z,99299.25
2022-11-15T01:49:27.495Z,99294.16
2022-11-15T01:51:25.514Z,99300.75
2022-11-15T01:53:23.853Z,99300.75
2022-11-15T01:55:21.872Z,99297.06
2022-11-15T01:57:20.100Z,99294.16
2022-11-15T01:59:18.325Z,99284.66
2022-11-15T02:01:16.695Z,99290.50
2022-11-15T02:03:15.119Z,99290.50
2022-11-15T02:05:13.620Z,99293.41
2022-11-15T02:07:12.079Z,99292.66
2022-11-15T02:09:10.202Z,99293.34
2022-11-15T02:11:08.217Z,99285.34
2022-11-15T02:13:06.620Z,99283.16
2022-11-15T02:15:04.624Z,99285.34
2022-11-15T02:17:02.626Z,99286.09
2022-11-15T02:19:00.750Z,99288.25
2022-11-15T02:20:58.824Z,99283.88
2022-11-15T02:22:56.909Z,99284.59
2022-11-15T02:24:54.982Z,99286.81
2022-11-15T02:26:53.031Z,99279.47
2022-11-15T02:28:51.252Z,99275.06
2022-11-15T02:30:49.370Z,99274.38
2022-11-15T02:32:47.693Z,99276.56
2022-11-15T02:34:45.837Z,99277.31
2022-11-15T02:36:43.879Z,99269.22
2022-11-15T02:38:41.175Z,99263.41
2022-11-15T02:40:39.359Z,99267.06
2022-11-15T02:42:54.993Z,99256.81
2022-11-15T02:44:53.026Z,99254.63
2022-11-15T02:47:08.807Z,99258.28
2022-11-15T02:49:06.832Z,99250.22
2022-11-15T02:51:05.189Z,99247.28
2022-11-15T02:53:03.879Z,99246.59
2022-11-15T02:55:02.120Z,99245.13
2022-11-15T02:57:00.441Z,99240.00
2022-11-15T02:58:58.800Z,99245.09
2022-11-15T03:00:56.915Z,99234.16
2022-11-15T03:02:55.184Z,99242.94
2022-11-15T03:04:53.170Z,99238.53
2022-11-15T03:06:51.268Z,99232.00
2022-11-15T03:08:49.719Z,99236.34
2022-11-15T03:10:48.069Z,99232.00
2022-11-15T03:12:46.462Z,99224.66
2022-11-15T03:14:44.735Z,99236.34
2022-11-15T03:16:42.770Z,99232.69
2022-11-15T03:18:41.078Z,99233.44
2022-11-15T03:20:39.114Z,99236.34
2022-11-15T03:22:37.388Z,99231.94
2022-11-15T03:24:35.402Z,99234.13
2022-11-15T03:26:33.704Z,99236.34
2022-11-15T03:28:31.713Z,99233.44
2022-11-15T03:30:29.916Z,99238.53
2022-11-15T03:32:27.942Z,99234.13
2022-11-15T03:34:26.031Z,99231.19
2022-11-15T03:36:24.468Z,99237.03
2022-11-15T03:38:22.528Z,99239.97
2022-11-15T03:40:20.784Z,99241.44
2022-11-15T03:42:19.041Z,99242.88
2022-11-15T03:44:17.062Z,99230.47
2022-11-15T03:46:15.116Z,99240.69
2022-11-15T03:48:13.117Z,99239.97
2022-11-15T03:50:11.904Z,99238.47
2022-11-15T03:52:10.208Z,99245.06
2022-11-15T03:54:08.481Z,99241.41
2022-11-15T03:56:06.497Z,99231.19
2022-11-15T03:58:04.708Z,99231.91
2022-11-15T04:00:02.952Z,99230.44
2022-11-15T04:02:00.959Z,99232.63
2022-11-15T04:03:59.167Z,99231.19
2022-11-15T04:05:57.226Z,99223.84
2022-11-15T04:07:55.549Z,99226.78
2022-11-15T04:10:06.559Z,99218.00
2022-11-15T04:12:05.015Z,99228.25
2022-11-15T04:14:03.037Z,99232.63
2022-11-15T04:16:01.440Z,99224.59
2022-11-15T04:17:59.473Z,99225.28
2022-11-15T04:20:15.265Z,99220.94
2022-11-15T04:22:31.012Z,99228.22
2022-11-15T04:24:29.034Z,99226.03
2022-11-15T04:26:27.241Z,99222.38
2022-11-15T04:28:25.498Z,99221.63
2022-11-15T04:30:22.509Z,99219.44
2022-11-15T04:32:20.559Z,99218.72
2022-11-15T04:34:18.593Z,99211.41
2022-11-15T04:36:34.391Z,99209.94
2022-11-15T04:38:32.476Z,99212.16
2022-11-15T04:40:30.800Z,99208.50
2022-11-15T04:42:28.800Z,99212.16
2022-11-15T04:44:27.275Z,99200.47
2022-11-15T04:46:25.708Z,99196.81
2022-11-15T04:48:23.789Z,99201.19
2022-11-15T04:50:22.108Z,99191.72
2022-11-15T04:52:20.111Z,99203.41
2022-11-15T04:54:18.157Z,99211.41
2022-11-15T04:56:16.389Z,99205.56
2022-11-15T04:58:14.399Z,99209.94
2022-11-15T05:00:12.409Z,99214.34
2022-11-15T05:02:10.671Z,99209.94
2022-11-15T05:04:20.315Z,99210.66
2022-11-15T05:06:18.417Z,99208.50
2022-11-15T05:08:16.421Z,99202.66
2022-11-15T05:10:14.735Z,99207.00
2022-11-15T05:12:13.194Z,99207.75
2022-11-15T05:14:11.248Z,99204.81
2022-11-15T05:16:10.379Z,99211.41
2022-11-15T05:18:08.720Z,99192.41
2022-11-15T05:20:06.882Z,99195.34
2022-11-15T05:22:04.868Z,99199.00
2022-11-15T05:24:02.882Z,99195.34
2022-11-15T05:26:05.070Z,99198.25
2022-11-15T05:28:06.186Z,99192.41
2022-11-15T05:30:04.211Z,99190.22
2022-11-15T05:32:02.433Z,99189.50
2022-11-15T05:34:00.696Z,99189.50
2022-11-15T05:35:58.719Z,99196.06
2022-11-15T05:37:56.757Z,99192.41
2022-11-15T05:39:54.849Z,99188.00
2022-11-15T05:41:52.917Z,99188.00
2022-11-15T05:43:51.111Z,99190.19
2022-11-15T05:45:49.433Z,99188.75
2022-11-15T05:47:47.651Z,99180.69
2022-11-15T05:49:45.960Z,99190.19
2022-11-15T05:51:44.264Z,99183.59
2022-11-15T05:53:42.481Z,99179.25
2022-11-15T05:55:40.736Z,99178.50
2022-11-15T05:57:38.762Z,99180.69
2022-11-15T05:59:37.035Z,99179.25
2022-11-15T06:01:35.234Z,99180.69
2022-11-15T06:03:33.404Z,99183.59
2022-11-15T06:05:31.814Z,99179.22
2022-11-15T06:07:29.864Z,99182.88
2022-11-15T06:09:28.239Z,99177.06
2022-11-15T06:11:26.512Z,99171.22
2022-11-15T06:13:24.529Z,99173.38
2022-11-15T06:15:22.880Z,99176.31
2022-11-15T06:17:20.904Z,99168.97
2022-11-15T06:19:18.935Z,99168.97
2022-11-15T06:21:16.903Z,99170.47
2022-11-15T06:23:15.282Z,99164.63
2022-11-15T06:25:13.316Z,99166.81
2022-11-15T06:27:11.484Z,99164.59
2022-11-15T06:29:09.483Z,99160.22
2022-11-15T06:31:07.759Z,99162.41
2022-11-15T06:33:06.150Z,99164.59
2022-11-15T06:35:04.226Z,99158.00
2022-11-15T06:37:02.510Z,99166.03
2022-11-15T06:39:00.727Z,99168.97
2022-11-15T06:40:58.737Z,99168.22
2022-11-15T06:42:57.150Z,99164.56
2022-11-15T06:44:55.470Z,99175.50
2022-11-15T06:46:53.487Z,99174.81
2022-11-15T06:48:51.813Z,99177.72
2022-11-15T06:50:50.007Z,99179.16
2022-11-15T06:52:49.170Z,99185.72
2022-11-15T06:54:47.406Z,99185.00
2022-11-15T06:56:45.628Z,99181.31
2022-11-15T06:58:43.693Z,99180.59
2022-11-15T07:00:42.219Z,99186.44
2022-11-15T07:02:40.250Z,99186.44
2022-11-15T07:04:38.328Z,99178.38
2022-11-15T07:06:36.750Z,99181.31
2022-11-15T07:08:34.798Z,99191.53
2022-11-15T07:10:33.110Z,99192.25
2022-11-15T07:12:31.507Z,99193.69
2022-11-15T07:14:29.710Z,99182.75
2022-11-15T07:16:27.694Z,99184.25
2022-11-15T07:18:25.902Z,99182.09
2022-11-15T07:20:23.917Z,99185.72
2022-11-15T07:22:22.116Z,99174.09
2022-11-15T07:24:20.326Z,99178.50
2022-11-15T07:26:18.560Z,99181.44
2022-11-15T07:28:16.926Z,99174.19
2022-11-15T07:30:15.740Z,99161.06
2022-11-15T07:32:14.154Z,99167.72
2022-11-15T07:34:12.351Z,99169.94
2022-11-15T07:36:10.424Z,99180.94
2022-11-15T07:38:08.764Z,99175.19
2022-11-15T07:40:06.810Z,99181.03
2022-11-15T07:42:22.599Z,99173.78
2022-11-15T07:44:20.627Z,99177.50
2022-11-15T07:46:19.013Z,99179.00
2022-11-15T07:48:17.266Z,99171.75
2022-11-15T07:50:15.294Z,99168.16
2022-11-15T07:52:13.316Z,99167.47
2022-11-15T07:54:11.397Z,99164.59
2022-11-15T07:56:09.619Z,99163.94
2022-11-15T07:58:07.853Z,99166.19
2022-11-15T08:00:05.913Z,99164.00
2022-11-15T08:02:04.220Z,99162.63
2022-11-15T08:04:02.351Z,99157.56
2022-11-15T08:06:00.374Z,99165.66
2022-11-15T08:07:58.472Z,99173.00
2022-11-15T08:09:56.721Z,99163.53
2022-11-15T08:11:55.033Z,99170.88
2022-11-15T08:13:53.074Z,99161.38
2022-11-15T08:15:57.382Z,99161.44
2022-11-15T08:17:55.924Z,99168.03
2022-11-15T08:19:54.114Z,99165.84
2022-11-15T08:21:52.358Z,99168.81
2022-11-15T08:23:50.558Z,99165.91
2022-11-15T08:25:48.498Z,99160.81
2022-11-15T08:27:46.712Z,99158.63
2022-11-15T08:29:44.940Z,99162.31
2022-11-15T08:31:43.227Z,99155.00
2022-11-15T08:33:41.467Z,99161.59
2022-11-15T08:35:39.752Z,99153.56
2022-11-15T08:37:38.507Z,99160.88
2022-11-15T08:39:36.550Z,99164.53
2022-11-15T08:41:34.623Z,99152.16
2022-11-15T08:43:32.936Z,99158.00
2022-11-15T08:45:31.549Z,99154.31
2022-11-15T08:47:29.556Z,99154.34
2022-11-15T08:49:27.708Z,99155.81
2022-11-15T08:51:26.109Z,99152.88
2022-11-15T08:53:24.182Z,99155.81
2022-11-15T08:55:24.873Z,99149.97
2022-11-15T08:57:23.490Z,99151.41
2022-11-15T08:59:21.513Z,99155.09
2022-11-15T09:01:19.815Z,99151.41
2022-11-15T09:03:18.305Z,99152.91
2022-11-15T09:05:17.137Z,99149.97
2022-11-15T09:07:15.207Z,99148.53
2022-11-15T09:09:13.339Z,99152.22
2022-11-15T09:11:11.360Z,99151.47
2022-11-15T09:13:09.662Z,99150.03
2022-11-15T09:15:07.817Z,99155.13
2022-11-15T09:17:05.851Z,99145.63
2022-11-15T09:19:10.422Z,99154.41
2022-11-15T09:21:09.916Z,99157.31
2022-11-15T09:23:07.923Z,99153.66
2022-11-15T09:25:09.912Z,99159.50
2022-11-15T09:27:09.067Z,99152.94
2022-11-15T09:29:07.288Z,99160.25
2022-11-15T09:31:05.298Z,99161.72
2022-11-15T09:33:03.480Z,99164.66
2022-11-15T09:35:01.694Z,99163.22
2022-11-15T09:36:59.918Z,99166.88
2022-11-15T09:38:58.157Z,99174.91
2022-11-15T09:40:56.415Z,99176.41
2022-11-15T09:42:54.706Z,99181.53
2022-11-15T09:44:53.027Z,99177.88
2022-11-15T09:46:51.988Z,99178.59
2022-11-15T09:48:50.388Z,99177.91
2022-11-15T09:50:48.747Z,99177.19
2022-11-15T09:52:46.959Z,99187.41
2022-11-15T09:54:54.432Z,99181.56
2022-11-15T09:56:53.721Z,99174.28
2022-11-15T09:58:51.819Z,99172.09
2022-11-15T10:00:53.227Z,99172.09
2022-11-15T10:02:51.528Z,99162.59
2022-11-15T10:04:49.670Z,99162.59
2022-11-15T10:06:47.862Z,99159.66
2022-11-15T10:08:46.250Z,99153.81
2022-11-15T10:10:44.370Z,99159.66
2022-11-15T10:12:42.383Z,99146.53
2022-11-15T10:14:40.435Z,99153.13
2022-11-15T10:16:38.705Z,99140.69
2022-11-15T10:18:36.743Z,99138.50
2022-11-15T10:20:38.069Z,99125.34
2022-11-15T10:22:36.424Z,99119.47
2022-11-15T10:24:35.104Z,99119.47
2022-11-15T10:26:33.302Z,99120.22
2022-11-15T10:28:31.744Z,99113.69
2022-11-15T10:30:30.426Z,99110.75
2022-11-15T10:32:28.461Z,99107.09
2022-11-15T10:34:26.645Z,99097.56
2022-11-15T10:36:26.398Z,99093.22
2022-11-15T10:38:24.423Z,99090.28
2022-11-15T10:40:22.702Z,99087.34
2022-11-15T10:42:21.098Z,99080.78
2022-11-15T10:44:19.511Z,99087.34
2022-11-15T10:46:44.635Z,99081.50
2022-11-15T10:48:36.136Z,99073.47
2022-11-15T10:50:34.165Z,99066.88
2022-11-15T10:52:32.691Z,99069.81
2022-11-15T10:54:30.758Z,99059.59
2022-11-15T10:56:28.702Z,99059.59
2022-11-15T10:58:26.723Z,99045.69
2022-11-15T11:00:24.763Z,99044.97
2022-11-15T11:02:22.793Z,99034.00
2022-11-15T11:04:21.331Z,99036.91
2022-11-15T11:06:19.360Z,99028.88
2022-11-15T11:08:17.596Z,99027.44
2022-11-15T11:10:44.093Z,99031.09
2022-11-15T11:12:34.225Z,99025.25
2022-11-15T11:14:32.853Z,99023.81
2022-11-15T11:16:34.974Z,99023.06
2022-11-15T11:18:36.076Z,99020.16
2022-11-15T11:20:34.217Z,99023.81
2022-11-15T11:22:32.446Z,99020.16
2022-11-15T11:24:30.884Z,99017.25
2022-11-15T11:26:28.900Z,99012.88
2022-11-15T11:28:27.121Z,99005.53
2022-11-15T11:30:25.561Z,99010.63
2022-11-15T11:32:23.789Z,99004.09
2022-11-15T11:34:22.047Z,98999.69
2022-11-15T11:36:20.138Z,99005.53
2022-11-15T11:38:18.810Z,99003.31
2022-11-15T11:40:17.021Z,99001.81
2022-11-15T11:42:15.254Z,98998.19
2022-11-15T11:44:13.684Z,98996.72
2022-11-15T11:46:12.034Z,98986.47
2022-11-15T11:48:10.075Z,98996.69
2022-11-15T11:50:08.401Z,98993.75
2022-11-15T11:52:06.427Z,98995.22
2022-11-15T11:54:04.840Z,98983.53
2022-11-15T11:56:02.872Z,98975.50
2022-11-15T11:58:01.208Z,98972.56
2022-11-15T11:59:59.292Z,98969.66
2022-11-15T12:01:57.698Z,98968.91
2022-11-15T12:03:55.958Z,98962.31
2022-11-15T12:05:54.398Z,98960.13
2022-11-15T12:07:52.640Z,98951.34
2022-11-15T12:09:50.874Z,98938.94
2022-11-15T12:11:48.905Z,98952.09
2022-11-15T12:13:47.318Z,98944.03
2022-11-15T12:15:45.972Z,98943.31
2022-11-15T12:17:44.228Z,98925.78
2022-11-15T12:19:43.904Z,98922.13
2022-11-15T12:21:42.193Z,98914.09
2022-11-15T12:23:40.628Z,98908.25
2022-11-15T12:25:39.066Z,98895.81
2022-11-15T12:27:37.295Z,98897.28
2022-11-15T12:29:35.322Z,98896.56
2022-11-15T12:31:33.608Z,98880.47
2022-11-15T12:33:31.917Z,98869.53
2022-11-15T12:35:29.946Z,98875.38
2022-11-15T12:37:28.231Z,98870.97
2022-11-15T12:39:26.694Z,98868.78
2022-11-15T12:41:24.734Z,98868.78
2022-11-15T12:43:22.969Z,98855.66
2022-11-15T12:45:21.179Z,98858.56
2022-11-15T12:47:23.104Z,98851.25
2022-11-15T12:49:21.515Z,98846.13
2022-11-15T12:51:19.546Z,98843.22
2022-11-15T12:53:18.797Z,98838.84
2022-11-15T12:55:17.051Z,98838.84
2022-11-15T12:57:15.498Z,98838.84
2022-11-15T12:59:13.929Z,98831.50
2022-11-15T13:12:22.738Z,98832.88
2022-11-15T13:14:20.943Z,98834.25
2022-11-15T13:16:18.999Z,98829.91
2022-11-15T13:18:17.039Z,98823.50
2022-11-15T13:20:16.614Z,98820.75
2022-11-15T13:22:37.649Z,98816.59
2022-11-15T13:24:35.892Z,98812.38
2022-11-15T13:26:34.019Z,98808.84
2022-11-15T13:28:32.523Z,98807.47
2022-11-15T14:19:29.667Z,98738.53
2022-11-15T14:21:27.788Z,98739.38
2022-11-15T14:23:26.051Z,98727.16
2022-11-15T14:25:24.325Z,98725.81
2022-11-15T14:27:22.429Z,98714.19
2022-11-15T14:29:20.864Z,98704.72
2022-11-15T14:31:19.185Z,98706.16
2022-11-15T14:33:17.452Z,98705.44
2022-11-15T14:35:15.449Z,98703.91
2022-11-15T14:37:13.677Z,98703.88
2022-11-15T14:39:11.721Z,98695.78
2022-11-15T14:41:10.130Z,98689.91
2022-11-15T14:43:08.136Z,98689.88
2022-11-15T14:45:06.482Z,98685.47
2022-11-15T14:47:04.518Z,98692.09
2022-11-15T14:49:02.548Z,98683.28
2022-11-15T14:51:00.727Z,98683.28
2022-11-15T14:52:58.796Z,98678.13
2022-11-15T14:54:57.099Z,98675.94
2022-11-15T14:56:55.454Z,98680.31
2022-11-15T14:58:53.726Z,98674.47
2022-11-15T15:00:51.806Z,98672.28
2022-11-15T15:02:50.014Z,98672.28
2022-11-15T15:04:48.240Z,98663.53
2022-11-15T15:06:46.539Z,98664.28
2022-11-15T15:08:44.605Z,98654.00
2022-11-15T15:10:43.024Z,98654.75
2022-11-15T15:12:41.315Z,98656.25
2022-11-15T15:14:39.350Z,98663.59
2022-11-15T15:16:37.414Z,98654.81
2022-11-15T15:18:35.438Z,98654.06
2022-11-15T15:20:33.413Z,98648.97
2022-11-15T15:22:32.595Z,98653.38
2022-11-15T15:24:30.650Z,98640.91
2022-11-15T15:26:28.928Z,98642.41
2022-11-15T15:28:32.939Z,98640.94
2022-11-15T15:30:32.485Z,98639.47
2022-11-15T15:32:30.531Z,98640.97
2022-11-15T15:34:28.576Z,98632.88
2022-11-15T15:36:26.627Z,98627.00
2022-11-15T15:38:24.864Z,98635.06
2022-11-15T15:40:22.843Z,98635.09
2022-11-15T15:42:22.008Z,98631.44
2022-11-15T15:44:21.204Z,98633.63
2022-11-15T15:46:19.249Z,98631.44
2022-11-15T15:48:17.450Z,98622.66
2022-11-15T15:50:15.445Z,98621.91
2022-11-15T15:52:13.597Z,98619.00
2022-11-15T15:54:11.801Z,98618.28
2022-11-15T15:56:10.609Z,98613.13
2022-11-15T15:58:09.302Z,98616.09
2022-11-15T16:00:08.864Z,98613.88
2022-11-15T16:02:06.859Z,98614.63
2022-11-15T16:04:05.055Z,98620.47
2022-11-15T16:06:05.243Z,98613.91
2022-11-15T16:08:03.657Z,98602.91
2022-11-15T16:10:05.025Z,98609.50
2022-11-15T16:12:03.055Z,98615.34
2022-11-15T16:14:01.130Z,98613.19
2022-11-15T16:15:59.222Z,98605.09
2022-11-15T16:17:57.204Z,98606.59
2022-11-15T16:19:55.157Z,98613.16
2022-11-15T16:21:53.986Z,98605.09
2022-11-15T16:23:52.189Z,98596.34
2022-11-15T16:25:50.229Z,98600.00
2022-11-15T16:27:49.796Z,98605.13
2022-11-15T16:29:47.923Z,98600.75
2022-11-15T16:31:46.009Z,98608.06
2022-11-15T16:33:44.027Z,98609.53
2022-11-15T16:35:42.229Z,98610.94
2022-11-15T16:37:40.876Z,98625.59
2022-11-15T16:39:39.096Z,98624.88
2022-11-15T16:41:37.092Z,98619.00
2022-11-15T16:43:36.324Z,98614.59
2022-11-15T16:45:34.389Z,98610.22
2022-11-15T16:47:32.538Z,98617.53
2022-11-15T16:49:30.574Z,98602.88
2022-11-15T16:51:28.639Z,98599.97
2022-11-15T16:53:26.869Z,98598.50
2022-11-15T16:55:25.160Z,98588.25
2022-11-15T16:57:23.328Z,98587.53
2022-11-15T16:59:21.601Z,98573.63
2022-11-15T17:01:20.168Z,98575.81
2022-11-15T17:03:18.209Z,98566.28
2022-11-15T17:05:20.130Z,98577.25
2022-11-15T17:07:18.543Z,98578.72
2022-11-15T17:09:17.444Z,98570.69
2022-11-15T17:11:15.393Z,98573.59
2022-11-15T17:13:13.491Z,98568.47
2022-11-15T17:15:11.551Z,98572.84
2022-11-15T17:17:09.562Z,98569.91
2022-11-15T17:19:07.667Z,98567.00
2022-11-15T17:21:05.649Z,98572.84
2022-11-15T17:23:03.888Z,98574.31
2022-11-15T17:25:01.928Z,98567.72
2022-11-15T17:26:59.956Z,98567.00
2022-11-15T17:28:58.070Z,98569.16
2022-11-15T17:30:56.212Z,98563.31
2022-11-15T17:32:54.227Z,98566.97
2022-11-15T17:34:52.421Z,98566.97
2022-11-15T17:36:50.412Z,98571.38
2022-11-15T17:38:58.019Z,98572.81
2022-11-15T17:40:57.758Z,98581.53
2022-11-15T17:42:57.482Z,98571.31
2022-11-15T17:44:55.791Z,98565.47
2022-11-15T17:46:53.866Z,98572.78
2022-11-15T17:48:52.075Z,98568.38
2022-11-15T17:50:50.092Z,98566.91
2022-11-15T17:52:48.176Z,98571.28
2022-11-15T17:54:46.211Z,98568.34
2022-11-15T17:56:44.288Z,98561.06
2022-11-15T17:58:42.311Z,98561.03
2022-11-15T18:00:40.534Z,98566.88
2022-11-15T18:02:38.556Z,98557.38
2022-11-15T18:04:36.809Z,98558.84
2022-11-15T18:06:34.851Z,98552.25
2022-11-15T18:08:33.283Z,98550.06
2022-11-15T18:10:31.383Z,98551.53
2022-11-15T18:12:32.041Z,98540.56
2022-11-15T18:14:30.458Z,98539.81
2022-11-15T18:16:28.920Z,98538.34
2022-11-15T18:18:27.002Z,98538.34
2022-11-15T18:20:28.855Z,98539.06
2022-11-15T18:22:27.133Z,98539.06
2022-11-15T18:24:25.109Z,98528.81
2022-11-15T18:26:27.040Z,98539.06
2022-11-15T18:28:25.294Z,98542.72
2022-11-15T18:30:23.829Z,98541.25
2022-11-15T18:32:22.202Z,98539.78
2022-11-15T18:34:20.240Z,98535.41
2022-11-15T18:36:18.259Z,98533.94
2022-11-15T18:38:16.498Z,98535.38
2022-11-15T18:40:14.539Z,98530.97
2022-11-15T18:42:12.659Z,98530.28
2022-11-15T18:44:10.715Z,98536.13
2022-11-15T18:46:09.025Z,98536.84
2022-11-15T18:48:07.263Z,98532.44
2022-11-15T18:50:05.308Z,98525.16
2022-11-15T18:52:03.339Z,98526.59
2022-11-15T18:54:02.505Z,98519.28
2022-11-15T18:56:00.544Z,98524.41
2022-11-15T18:57:59.417Z,98517.09
2022-11-15T18:59:57.638Z,98517.09
2022-11-15T19:01:56.938Z,98514.16
2022-11-15T19:03:55.213Z,98511.94
2022-11-15T19:05:53.267Z,98513.41
2022-11-15T19:07:51.295Z,98505.41
2022-11-15T19:09:49.301Z,98495.91
2022-11-15T19:11:47.340Z,98497.34
2022-11-15T19:13:46.196Z,98492.94
2022-11-15T19:15:44.245Z,98480.53
2022-11-15T19:17:42.404Z,98482.00
2022-11-15T19:19:40.620Z,98469.59
2022-11-15T19:21:38.612Z,98464.44
2022-11-15T19:23:36.723Z,98471.03
2022-11-15T19:25:34.758Z,98460.06
2022-11-15T19:27:36.991Z,98467.38
2022-11-15T19:29:36.162Z,98453.47
2022-11-15T19:31:34.297Z,98460.78
2022-11-15T19:33:33.105Z,98460.06
2022-11-15T19:35:31.361Z,98456.41
2022-11-15T19:37:29.374Z,98456.41
2022-11-15T19:39:27.347Z,98459.34
2022-11-15T19:41:25.365Z,98453.50
2022-11-15T19:43:23.387Z,98448.38
2022-11-15T19:45:21.389Z,98449.09
2022-11-15T19:47:19.682Z,98447.63
2022-11-15T19:49:17.689Z,98443.25
2022-11-15T19:51:15.918Z,98444.75
2022-11-15T19:53:13.953Z,98441.09
2022-11-15T19:55:11.979Z,98443.25
2022-11-15T19:57:11.263Z,98451.28
2022-11-15T19:59:11.407Z,98448.38
2022-11-15T20:01:09.605Z,98442.53
2022-11-15T20:03:07.634Z,98453.53
2022-11-15T20:05:05.835Z,98449.88
2022-11-15T20:07:04.160Z,98450.59
2022-11-15T20:09:02.468Z,98454.22
2022-11-15T20:11:00.807Z,98465.22
2022-11-15T20:12:59.244Z,98466.66
2022-11-15T20:14:57.576Z,98460.06
2022-11-15T20:16:56.253Z,98457.16
2022-11-15T20:18:54.526Z,98463.72
2022-11-15T20:20:52.727Z,98460.06
2022-11-15T20:22:53.185Z,98463.00
2022-11-15T20:24:51.462Z,98456.44
2022-11-15T20:26:49.672Z,98471.06
2022-11-15T20:28:48.377Z,98462.28
2022-11-15T20:30:46.875Z,98466.66
2022-11-15T20:32:45.113Z,98464.47
2022-11-15T20:34:43.561Z,98461.53
2022-11-15T20:36:41.789Z,98464.44
2022-11-15T20:38:40.063Z,98469.56
2022-11-15T20:40:38.121Z,98462.97
2022-11-15T20:42:36.529Z,98471.03
2022-11-15T20:44:34.836Z,98463.72
2022-11-15T20:46:32.918Z,98466.63
2022-11-15T20:48:31.320Z,98462.97
2022-11-15T20:50:43.487Z,98459.31
2022-11-15T20:52:42.244Z,98458.59
2022-11-15T20:54:40.369Z,98459.34
2022-11-15T20:56:38.539Z,98463.00
2022-11-15T20:58:36.809Z,98449.09
2022-11-15T21:00:36.846Z,98456.38
2022-11-15T21:02:35.146Z,98449.81
2022-11-15T21:04:33.635Z,98452.03
2022-11-15T21:06:32.034Z,98443.25
2022-11-15T21:08:50.220Z,98443.97
2022-11-15T21:11:05.890Z,98443.97
2022-11-15T21:13:02.929Z,98433.00
2022-11-15T21:15:00.974Z,98436.66
2022-11-15T21:16:59.646Z,98434.47
2022-11-15T21:18:57.900Z,98429.34
2022-11-15T21:20:56.297Z,98434.47
2022-11-15T21:22:54.691Z,98446.91
2022-11-15T21:24:52.922Z,98438.13
2022-11-15T21:26:51.363Z,98443.25
2022-11-15T21:28:49.609Z,98437.41
2022-11-15T21:30:47.625Z,98438.84
2022-11-15T21:32:45.878Z,98436.69
2022-11-15T21:34:44.143Z,98434.50
2022-11-15T21:36:42.446Z,98433.03
2022-11-15T21:38:40.761Z,98438.13
2022-11-15T21:40:38.808Z,98438.88
2022-11-15T21:42:37.213Z,98427.19
2022-11-15T21:44:35.525Z,98430.84
2022-11-15T21:46:33.963Z,98434.50
2022-11-15T21:48:32.498Z,98433.06
2022-11-15T21:50:31.083Z,98433.06
2022-11-15T21:52:29.173Z,98433.06
2022-11-15T21:54:27.442Z,98429.41
2022-11-15T21:56:26.022Z,98430.84
2022-11-15T21:58:24.363Z,98430.84
2022-11-15T22:00:39.880Z,98426.47
2022-11-15T22:02:38.124Z,98426.47
2022-11-15T22:04:36.325Z,98419.16
2022-11-15T22:06:34.759Z,98411.13
2022-11-15T22:08:33.185Z,98413.31
2022-11-15T22:10:31.902Z,98410.38
2022-11-15T22:12:30.112Z,98406.72
2022-11-15T22:14:28.554Z,98395.78
2022-11-15T22:16:26.949Z,98405.25
2022-11-15T22:18:26.720Z,98401.63
2022-11-15T22:22:43.535Z,98402.34
2022-11-15T22:24:41.874Z,98403.09
2022-11-15T22:26:40.368Z,98404.53
2022-11-15T22:28:38.519Z,98407.47
2022-11-15T22:30:36.662Z,98409.66
2022-11-15T22:32:35.157Z,98402.34
2022-11-15T22:34:33.533Z,98404.53
2022-11-15T22:36:46.801Z,98403.06
2022-11-15T22:38:50.370Z,98403.06
2022-11-15T22:40:49.127Z,98399.41
2022-11-15T22:42:47.453Z,98395.03
2022-11-15T22:44:45.793Z,98395.03
2022-11-15T22:46:44.128Z,98403.06
2022-11-15T22:48:42.441Z,98389.94
2022-11-15T22:50:40.799Z,98392.09
2022-11-15T22:52:39.478Z,98381.91
2022-11-15T22:54:37.826Z,98383.34
2022-11-15T22:56:36.377Z,98381.16
2022-11-15T22:58:34.891Z,98370.94
2022-11-15T23:00:33.556Z,98358.50
2022-11-15T23:02:31.935Z,98367.28
2022-11-15T23:04:30.053Z,98354.88
2022-11-15T23:06:28.558Z,98356.31
2022-11-15T23:08:26.840Z,98347.56
2022-11-15T23:10:42.509Z,98344.63
2022-11-15T23:12:58.463Z,98344.63
2022-11-15T23:14:56.727Z,98341.72
2022-11-15T23:16:55.083Z,98331.50
2022-11-15T23:18:53.486Z,98338.09
2022-11-15T23:20:51.632Z,98335.16
2022-11-15T23:22:49.249Z,98343.94
2022-11-15T23:24:47.753Z,98343.94
2022-11-15T23:26:46.659Z,98343.19
2022-11-15T23:28:45.155Z,98346.13
2022-11-15T23:31:01.059Z,98351.97
2022-11-15T23:33:16.797Z,98350.50
2022-11-15T23:35:14.899Z,98350.50
2022-11-15T23:37:13.664Z,98354.84
2022-11-15T23:44:25.623Z,98355.59
2022-11-15T23:46:23.910Z,98357.78
2022-11-15T23:48:40.278Z,98354.84
2022-11-15T23:50:38.963Z,98357.75
2022-11-15T23:52:37.347Z,98364.31
2022-11-15T23:54:35.693Z,98368.69
2022-11-15T23:56:34.211Z,98359.94
2022-11-15T23:58:33.127Z,98368.69
